This is the latest recevied weather packets stored in our database for station/object DB0SWS-13. If no packets are shown the sender has not sent any weather packets the latest 1 day(s).
| Time | Temp. | Humidity | Pressure | Rain* | Wind** | Luminosity | Snow |
|---|---|---|---|---|---|---|---|
| 1788577648 | 15.56° C | 70% | 1024.5 hPa | - | - | - | - |
| 1788576748 | 16.11° C | 69% | 1024.8 hPa | - | - | - | - |
| 1788575848 | 16.11° C | 70% | 1024.6 hPa | - | - | - | - |
| 1788574948 | 16.67° C | 66% | 1024.7 hPa | - | - | - | - |
| 1788574048 | 16.67° C | 67% | 1025.3 hPa | - | - | - | - |
| 1788573148 | 18.89° C | 69% | 1024.1 hPa | - | - | - | - |
| 1788572249 | 20.56° C | 65% | 1023.6 hPa | - | - | - | - |
| 1788571348 | 21.11° C | 62% | 1022.9 hPa | - | - | - | - |
| 1788570447 | 21.11° C | 61% | 1022.7 hPa | - | - | - | - |
| 1788569547 | 21.67° C | 60% | 1022.7 hPa | - | - | - | - |
| 1788568647 | 21.67° C | 59% | 1022.5 hPa | - | - | - | - |
| 1788567747 | 21.67° C | 59% | 1022.4 hPa | - | - | - | - |
| 1788566848 | 21.67° C | 58% | 1022.3 hPa | - | - | - | - |
| 1788565947 | 21.67° C | 57% | 1022.2 hPa | - | - | - | - |
| 1788565047 | 21.67° C | 56% | 1022.3 hPa | - | - | - | - |
| 1788564146 | 22.22° C | 56% | 1022.1 hPa | - | - | - | - |
| 1788563249 | 22.22° C | 55% | 1022.2 hPa | - | - | - | - |
| 1788562349 | 22.22° C | 55% | 1022.1 hPa | - | - | - | - |
| 1788561449 | 22.22° C | 54% | 1021.9 hPa | - | - | - | - |
| 1788560548 | 22.78° C | 54% | 1022 hPa | - | - | - | - |
| 1788559648 | 22.78° C | 51% | 1021.7 hPa | - | - | - | - |
| 1788558748 | 22.22° C | 53% | 1021.3 hPa | - | - | - | - |
| 1788557848 | 22.22° C | 53% | 1021 hPa | - | - | - | - |
| 1788556947 | 22.78° C | 52% | 1020.8 hPa | - | - | - | - |
| 1788556047 | 23.33° C | 51% | 1020.5 hPa | - | - | - | - |
* Rain since midnight (hover to see other rain measurements)
** Current wind speed in m/s (hover to see current wind gust speed)